Time;durP1;ratioP1;P1;durP2;ratioP2;P2;SDS_P1;SDS_P2;PMS_P1;PMS_P2;Temp;Humidity;BMP_temperature;BMP_pressure;BME280_temperature;BME280_humidity;BME280_pressure;Samples;Min_cycle;Max_cycle;Signal;HPM_P1;HPM_P2
2023/07/11 00:00:21;;;;;;;18.67;14.55;;;17.80;99.90;;;;;;5008618;28;20046;-75
2023/07/11 00:02:51;;;;;;;17.15;14.48;;;17.80;99.90;;;;;;5025799;28;20060;-75
2023/07/11 00:05:19;;;;;;;16.85;14.15;;;17.80;99.90;;;;;;5026604;28;20136;-75
2023/07/11 00:07:47;;;;;;;18.70;14.18;;;17.80;99.90;;;;;;5018551;28;20100;-76
2023/07/11 00:10:18;;;;;;;17.42;14.02;;;17.70;99.90;;;;;;5016056;28;20096;-73
2023/07/11 00:12:45;;;;;;;17.77;14.23;;;17.70;99.90;;;;;;5034498;28;20073;-74
2023/07/11 00:15:15;;;;;;;18.05;14.27;;;17.70;99.90;;;;;;5032433;28;20033;-75
2023/07/11 00:17:43;;;;;;;18.98;14.02;;;17.80;99.90;;;;;;5025319;28;20073;-74
2023/07/11 00:20:13;;;;;;;17.08;13.68;;;17.80;99.90;;;;;;5013902;28;20141;-76
2023/07/11 00:22:43;;;;;;;16.58;14.40;;;17.90;99.90;;;;;;5013079;28;20048;-76
2023/07/11 00:25:10;;;;;;;23.70;19.50;;;17.80;99.90;;;;;;5008751;28;20490;-74
2023/07/11 00:27:38;;;;;;;19.05;14.50;;;17.70;99.90;;;;;;4992708;28;20042;-75
2023/07/11 00:30:07;;;;;;;17.23;14.20;;;17.80;99.90;;;;;;5027638;28;20045;-76
2023/07/11 00:32:36;;;;;;;18.15;14.32;;;17.80;99.90;;;;;;5032674;28;20497;-76
2023/07/11 00:35:04;;;;;;;18.98;14.43;;;17.70;99.90;;;;;;5029796;28;20048;-76
2023/07/11 00:37:33;;;;;;;15.52;13.93;;;17.60;99.90;;;;;;5031349;28;20045;-75
2023/07/11 00:40:00;;;;;;;18.60;15.30;;;17.60;99.90;;;;;;5037580;28;20108;-78
2023/07/11 00:42:27;;;;;;;17.17;15.27;;;17.60;99.90;;;;;;5050763;28;20067;-77
2023/07/11 00:44:57;;;;;;;17.92;14.88;;;17.50;99.90;;;;;;5011849;28;20401;-76
2023/07/11 00:47:27;;;;;;;18.63;15.75;;;17.40;99.90;;;;;;4996751;28;20041;-76
2023/07/11 00:49:57;;;;;;;16.05;14.40;;;17.30;99.90;;;;;;5010246;28;20056;-76
2023/07/11 00:52:26;;;;;;;17.85;15.55;;;17.40;99.90;;;;;;5009377;28;20054;-75
2023/07/11 00:54:58;;;;;;;18.30;15.02;;;17.50;99.90;;;;;;5008744;28;20379;-77
2023/07/11 00:57:28;;;;;;;17.75;14.32;;;17.50;99.90;;;;;;5008700;28;20042;-77
2023/07/11 00:59:55;;;;;;;17.70;14.52;;;17.40;99.90;;;;;;5009603;28;20042;-77
2023/07/11 01:02:26;;;;;;;16.95;14.45;;;17.50;99.90;;;;;;5009506;28;20065;-76
2023/07/11 01:04:55;;;;;;;20.58;15.15;;;17.40;99.90;;;;;;5030051;28;20045;-75
2023/07/11 01:07:27;;;;;;;17.98;14.90;;;17.50;99.90;;;;;;5014585;28;20301;-78
2023/07/11 01:09:56;;;;;;;15.70;13.80;;;17.40;99.90;;;;;;5009987;28;20508;-77
2023/07/11 01:12:25;;;;;;;18.65;15.95;;;17.40;99.90;;;;;;5010362;28;20518;-76
2023/07/11 01:14:53;;;;;;;16.40;14.70;;;17.40;99.90;;;;;;5022054;28;20066;-76
2023/07/11 01:17:22;;;;;;;17.63;15.73;;;17.40;99.90;;;;;;5026114;28;20050;-77
2023/07/11 01:19:49;;;;;;;18.42;15.48;;;17.20;99.90;;;;;;5013719;28;20038;-78
2023/07/11 01:22:18;;;;;;;17.92;15.50;;;17.00;99.90;;;;;;5029930;28;20056;-76
2023/07/11 01:24:46;;;;;;;17.92;15.98;;;16.90;99.90;;;;;;5014749;28;20065;-75
2023/07/11 01:27:14;;;;;;;20.90;15.57;;;16.80;99.90;;;;;;5009868;28;20050;-75
2023/07/11 01:29:42;;;;;;;17.20;15.32;;;16.80;99.90;;;;;;5022550;28;20163;-75
2023/07/11 01:32:10;;;;;;;20.15;16.30;;;16.80;99.90;;;;;;5027882;28;20038;-77
2023/07/11 01:34:40;;;;;;;21.70;15.52;;;16.90;99.90;;;;;;5029199;28;20073;-76
2023/07/11 01:37:07;;;;;;;18.13;16.23;;;17.00;99.90;;;;;;5029937;28;20045;-76
2023/07/11 01:39:36;;;;;;;19.63;15.13;;;17.10;99.90;;;;;;5029982;28;20045;-76
2023/07/11 01:42:05;;;;;;;18.02;15.60;;;17.00;99.90;;;;;;5027723;28;20048;-76
2023/07/11 01:44:33;;;;;;;19.02;15.02;;;16.90;99.90;;;;;;5021017;28;20052;-75
2023/07/11 01:47:02;;;;;;;16.77;14.80;;;16.90;99.90;;;;;;5028436;28;20042;-77
2023/07/11 01:49:30;;;;;;;17.30;15.40;;;17.00;99.90;;;;;;5013182;28;20494;-75
2023/07/11 01:52:07;;;;;;;16.63;14.98;;;17.00;99.90;;;;;;5032424;28;20034;-77
2023/07/11 01:54:36;;;;;;;16.75;14.07;;;17.00;99.90;;;;;;5012357;28;20046;-76
2023/07/11 01:57:04;;;;;;;16.55;14.80;;;17.00;99.90;;;;;;5031426;28;20054;-76
2023/07/11 01:59:31;;;;;;;17.15;14.88;;;17.00;99.90;;;;;;5013211;28;20046;-77
2023/07/11 02:01:59;;;;;;;16.60;14.38;;;17.00;99.90;;;;;;5002593;28;20486;-77
2023/07/11 02:04:27;;;;;;;16.02;14.32;;;17.00;99.90;;;;;;4992817;28;20089;-79
2023/07/11 02:06:54;;;;;;;17.00;14.63;;;16.90;99.90;;;;;;4994302;28;20042;-78
2023/07/11 02:09:22;;;;;;;17.88;14.88;;;16.90;99.90;;;;;;4994785;28;20050;-75
2023/07/11 02:11:51;;;;;;;17.33;14.70;;;16.90;99.90;;;;;;4992524;28;20057;-75
2023/07/11 02:14:21;;;;;;;15.80;14.15;;;16.80;99.90;;;;;;4991856;28;20522;-76
2023/07/11 02:16:50;;;;;;;18.48;15.15;;;16.80;99.90;;;;;;4993647;28;20072;-75
2023/07/11 02:19:19;;;;;;;18.60;15.50;;;16.80;99.90;;;;;;5010171;28;20052;-77
2023/07/11 02:21:46;;;;;;;19.88;16.20;;;16.80;99.90;;;;;;5012339;28;20049;-78
2023/07/11 02:24:16;;;;;;;18.42;16.50;;;16.70;99.90;;;;;;5012136;28;20045;-76
2023/07/11 02:26:44;;;;;;;17.98;16.05;;;16.70;99.90;;;;;;5013160;28;20038;-75
2023/07/11 02:29:13;;;;;;;16.90;15.13;;;16.70;99.90;;;;;;5010905;28;20038;-77
2023/07/11 02:31:40;;;;;;;18.65;16.05;;;16.70;99.90;;;;;;5012750;28;20038;-73
2023/07/11 02:34:07;;;;;;;19.08;16.30;;;16.70;99.90;;;;;;5012499;28;20042;-75
2023/07/11 02:36:35;;;;;;;18.73;15.60;;;16.60;99.90;;;;;;5023658;28;20068;-74
2023/07/11 02:39:02;;;;;;;18.02;16.13;;;16.60;99.90;;;;;;5027741;28;20053;-76
2023/07/11 02:41:30;;;;;;;17.30;15.48;;;16.60;99.90;;;;;;5023780;28;20326;-77
2023/07/11 02:43:59;;;;;;;19.92;14.90;;;16.60;99.90;;;;;;5021294;28;20492;-75
2023/07/11 02:46:28;;;;;;;17.33;15.52;;;16.50;99.90;;;;;;5011480;28;20043;-76
2023/07/11 02:48:56;;;;;;;18.30;16.08;;;16.30;99.90;;;;;;5009943;28;20050;-75
2023/07/11 02:51:24;;;;;;;18.33;16.00;;;16.30;99.90;;;;;;5002958;28;20053;-76
2023/07/11 02:53:52;;;;;;;22.48;16.00;;;16.20;99.90;;;;;;4995962;28;20122;-77
2023/07/11 02:56:20;;;;;;;19.00;15.70;;;16.30;99.90;;;;;;4992493;28;20043;-76
2023/07/11 02:58:48;;;;;;;17.65;15.77;;;16.30;99.90;;;;;;4993368;28;20050;-76
2023/07/11 03:01:16;;;;;;;18.77;16.30;;;16.40;99.90;;;;;;4998084;28;20046;-74
2023/07/11 03:03:46;;;;;;;18.55;15.38;;;16.40;99.90;;;;;;5033494;28;20105;-77
2023/07/11 03:06:14;;;;;;;20.25;16.13;;;16.40;99.90;;;;;;5035757;28;20056;-77
2023/07/11 03:08:41;;;;;;;18.17;16.15;;;16.40;99.90;;;;;;5050754;28;20050;-78
2023/07/11 03:11:08;;;;;;;18.17;15.75;;;16.50;99.90;;;;;;5033654;28;20109;-78
2023/07/11 03:13:36;;;;;;;20.92;15.23;;;16.40;99.90;;;;;;5019872;28;20064;-78
2023/07/11 03:16:04;;;;;;;20.45;15.88;;;16.40;99.90;;;;;;5018107;28;20494;-77
2023/07/11 03:18:32;;;;;;;20.27;16.67;;;16.40;99.90;;;;;;5020148;28;20045;-78
2023/07/11 03:21:01;;;;;;;20.75;18.65;;;16.30;99.90;;;;;;5027038;28;20072;-75
2023/07/11 03:23:30;;;;;;;19.73;17.50;;;16.20;99.90;;;;;;5024993;28;20041;-78
2023/07/11 03:25:57;;;;;;;19.58;17.58;;;16.20;99.90;;;;;;5023705;28;20046;-74
2023/07/11 03:28:25;;;;;;;17.83;15.93;;;16.10;99.90;;;;;;5023462;28;20140;-77
2023/07/11 03:30:52;;;;;;;18.42;15.60;;;16.10;99.90;;;;;;5043701;28;20555;-74
2023/07/11 03:33:20;;;;;;;20.85;15.60;;;16.20;99.90;;;;;;5035556;28;20527;-75
2023/07/11 03:35:51;;;;;;;20.67;15.70;;;16.40;99.90;;;;;;5031935;28;20049;-78
2023/07/11 03:38:20;;;;;;;16.42;14.77;;;16.50;99.90;;;;;;5031305;28;20517;-76
2023/07/11 03:40:48;;;;;;;16.25;14.43;;;16.50;99.90;;;;;;5030860;28;20042;-75
2023/07/11 03:43:15;;;;;;;17.15;14.43;;;16.60;99.90;;;;;;5022918;28;20110;-77
2023/07/11 03:45:46;;;;;;;17.63;14.25;;;16.60;99.90;;;;;;5012850;28;20046;-76
2023/07/11 03:48:14;;;;;;;16.35;14.65;;;16.60;99.90;;;;;;5012589;28;20554;-77
2023/07/11 03:50:41;;;;;;;16.73;15.02;;;16.80;99.90;;;;;;5012157;28;20048;-75
2023/07/11 03:53:09;;;;;;;18.95;14.70;;;16.80;99.90;;;;;;5017757;28;20034;-78
2023/07/11 03:55:38;;;;;;;22.48;14.15;;;16.90;99.90;;;;;;5019400;28;20125;-78
2023/07/11 03:58:05;;;;;;;16.75;13.95;;;16.90;99.90;;;;;;5009782;28;20565;-76
2023/07/11 04:00:33;;;;;;;17.30;14.02;;;16.90;99.90;;;;;;5010581;28;20049;-75
2023/07/11 04:03:00;;;;;;;18.20;13.25;;;17.30;99.90;;;;;;5011047;28;20494;-77
2023/07/11 04:05:28;;;;;;;17.38;13.25;;;17.70;99.90;;;;;;5012262;28;20565;-74
2023/07/11 04:07:55;;;;;;;18.40;13.13;;;18.00;99.90;;;;;;5010843;28;20053;-74
2023/07/11 04:10:24;;;;;;;19.10;12.45;;;18.50;99.90;;;;;;5010152;28;20121;-78
2023/07/11 04:12:53;;;;;;;14.02;10.88;;;19.00;99.90;;;;;;5010498;28;20133;-75
2023/07/11 04:15:22;;;;;;;13.27;11.38;;;19.30;99.90;;;;;;5010061;28;20038;-75
2023/07/11 04:17:49;;;;;;;14.02;11.15;;;19.70;99.90;;;;;;5010498;28;20081;-77
2023/07/11 04:20:17;;;;;;;12.77;10.02;;;20.20;99.90;;;;;;5009702;28;20053;-77
2023/07/11 04:22:44;;;;;;;17.08;10.65;;;20.70;99.90;;;;;;5010625;28;20038;-74
2023/07/11 04:25:13;;;;;;;12.93;9.90;;;21.10;99.90;;;;;;5010417;28;20046;-76
2023/07/11 04:27:41;;;;;;;11.63;9.88;;;21.30;99.90;;;;;;5010714;28;20045;-76
2023/07/11 04:30:11;;;;;;;13.60;10.70;;;21.80;99.90;;;;;;5026331;28;20073;-77
2023/07/11 04:32:38;;;;;;;12.85;11.02;;;22.20;99.90;;;;;;5028796;28;20053;-77
2023/07/11 04:35:11;;;;;;;16.10;10.70;;;22.70;99.90;;;;;;5029863;28;20034;-76
2023/07/11 04:37:39;;;;;;;16.15;10.18;;;22.90;99.90;;;;;;5046836;22;20057;-87
2023/07/11 04:40:08;;;;;;;15.93;12.77;;;22.90;99.90;;;;;;5033608;28;20091;-87
2023/07/11 04:42:35;;;;;;;13.93;10.85;;;23.10;99.90;;;;;;5030468;28;20124;-86
2023/07/11 04:45:02;;;;;;;15.10;10.77;;;23.70;99.90;;;;;;5029559;28;20053;-86
2023/07/11 04:47:37;;;;;;;14.10;10.70;;;24.20;99.90;;;;;;5029344;28;20045;-87
2023/07/11 04:50:06;;;;;;;12.95;10.27;;;24.10;99.90;;;;;;5030752;28;20063;-87
2023/07/11 04:52:33;;;;;;;11.30;9.43;;;24.10;99.90;;;;;;5031578;28;20049;-87
2023/07/11 04:55:01;;;;;;;16.58;12.20;;;24.80;99.90;;;;;;5029764;28;20061;-86
2023/07/11 04:57:28;;;;;;;16.08;12.90;;;25.60;99.90;;;;;;5032040;28;20042;-87
2023/07/11 04:59:55;;;;;;;16.10;10.00;;;26.00;99.90;;;;;;5030220;28;20045;-87
2023/07/11 05:02:23;;;;;;;13.23;10.73;;;26.30;99.90;;;;;;5029530;28;20041;-86
2023/07/11 05:04:52;;;;;;;10.90;9.73;;;26.60;99.90;;;;;;5030631;28;20060;-81
2023/07/11 05:07:20;;;;;;;21.27;12.18;;;26.90;99.90;;;;;;5013661;28;20060;-84
2023/07/11 05:09:47;;;;;;;14.93;10.45;;;27.20;99.90;;;;;;5029144;28;20103;-86
2023/07/11 05:12:16;;;;;;;13.98;9.68;;;27.40;99.90;;;;;;5030093;28;20052;-87
2023/07/11 05:14:43;;;;;;;16.27;9.63;;;26.40;99.90;;;;;;5029881;28;20052;-85
2023/07/11 05:17:11;;;;;;;14.48;9.50;;;26.30;99.90;;;;;;5026140;28;20047;-86
2023/07/11 05:19:39;;;;;;;14.50;9.52;;;26.70;99.90;;;;;;5051567;28;20041;-87
2023/07/11 05:22:08;;;;;;;15.23;9.75;;;27.30;99.90;;;;;;5036866;28;20042;-87
2023/07/11 05:24:35;;;;;;;13.90;10.48;;;28.00;99.90;;;;;;5038226;28;20045;-85
2023/07/11 05:27:03;;;;;;;17.00;10.05;;;28.30;99.90;;;;;;5036226;28;20409;-86
2023/07/11 05:29:30;;;;;;;12.90;9.82;;;27.50;99.90;;;;;;5047820;28;20511;-88
2023/07/11 05:31:58;;;;;;;17.88;11.20;;;27.70;99.90;;;;;;5070733;28;20032;-88
2023/07/11 05:34:25;;;;;;;14.20;9.80;;;27.20;99.90;;;;;;5078427;28;20101;-86
2023/07/11 05:36:52;;;;;;;14.50;10.55;;;27.40;99.90;;;;;;5075826;28;20037;-86
2023/07/11 05:39:22;;;;;;;16.95;10.57;;;27.40;99.90;;;;;;5075782;28;20056;-86
2023/07/11 05:41:52;;;;;;;15.38;11.40;;;28.20;99.90;;;;;;5050205;28;20041;-86
2023/07/11 05:44:19;;;;;;;12.45;10.65;;;28.50;99.90;;;;;;5033629;28;20064;-86
2023/07/11 05:46:47;;;;;;;13.57;10.48;;;29.00;99.90;;;;;;5035375;28;20042;-88
2023/07/11 05:49:14;;;;;;;15.55;11.50;;;29.80;99.90;;;;;;5037102;28;20215;-86
2023/07/11 05:51:42;;;;;;;14.60;10.75;;;30.40;99.90;;;;;;5038151;28;20049;-86
2023/07/11 05:54:09;;;;;;;14.32;10.70;;;30.70;99.90;;;;;;5035884;28;20037;-87
2023/07/11 05:56:38;;;;;;;13.32;9.85;;;31.00;99.90;;;;;;5037916;28;20413;-84
2023/07/11 05:59:06;;;;;;;16.85;10.20;;;31.40;99.90;;;;;;5038976;28;20052;-87
2023/07/11 06:01:34;;;;;;;13.45;10.38;;;31.40;99.90;;;;;;5035450;28;20036;-86
2023/07/11 06:04:10;;;;;;;16.10;11.10;;;30.50;99.90;;;;;;5035190;28;20190;-86
2023/07/11 06:06:42;;;;;;;14.05;11.15;;;30.50;99.90;;;;;;5032884;28;20133;-86
2023/07/11 06:09:11;;;;;;;18.10;12.75;;;31.00;99.90;;;;;;5032758;28;20041;-88
2023/07/11 06:11:40;;;;;;;16.23;12.10;;;31.40;99.90;;;;;;5034285;28;20072;-85
2023/07/11 06:14:09;;;;;;;14.55;10.07;;;31.80;99.90;;;;;;5039110;28;20453;-86
2023/07/11 06:16:37;;;;;;;14.55;10.30;;;31.40;99.90;;;;;;5034405;28;20045;-87
2023/07/11 06:19:05;;;;;;;14.77;12.27;;;30.50;99.90;;;;;;5037346;28;20060;-86
2023/07/11 06:21:33;;;;;;;13.13;11.68;;;30.20;99.90;;;;;;5038213;28;20037;-87
2023/07/11 06:24:01;;;;;;;13.00;10.15;;;29.80;99.90;;;;;;5036719;28;20053;-86
2023/07/11 06:26:29;;;;;;;17.48;13.45;;;28.40;99.90;;;;;;5031955;28;20069;-85
2023/07/11 06:28:57;;;;;;;18.35;14.75;;;28.00;99.90;;;;;;5042208;28;20045;-86
2023/07/11 06:31:26;;;;;;;12.55;10.20;;;27.50;99.90;;;;;;5058603;28;20043;-86
2023/07/11 06:33:54;;;;;;;11.20;10.10;;;27.80;99.90;;;;;;5055010;28;20515;-87
2023/07/11 06:36:21;;;;;;;19.88;14.98;;;27.80;99.90;;;;;;5046355;28;20410;-86
2023/07/11 06:38:49;;;;;;;12.00;10.13;;;27.60;99.90;;;;;;5035035;28;20041;-87
2023/07/11 06:41:16;;;;;;;14.95;11.57;;;27.80;99.90;;;;;;5034018;28;20133;-86
2023/07/11 06:43:44;;;;;;;16.88;10.02;;;28.20;99.90;;;;;;5036415;28;20064;-84
2023/07/11 06:46:13;;;;;;;16.63;11.00;;;28.60;99.90;;;;;;5031230;28;20042;-87
2023/07/11 06:48:41;;;;;;;16.23;10.07;;;28.60;99.90;;;;;;5033323;28;20045;-86
2023/07/11 06:51:11;;;;;;;19.88;12.77;;;28.70;99.90;;;;;;5036623;28;20045;-86
2023/07/11 06:53:38;;;;;;;17.33;11.50;;;28.80;99.90;;;;;;5040380;28;20041;-85
2023/07/11 06:56:06;;;;;;;12.43;11.10;;;28.70;99.90;;;;;;5036038;28;20163;-85
2023/07/11 06:58:38;;;;;;;14.07;10.50;;;28.20;99.90;;;;;;5033045;28;20048;-86
2023/07/11 07:01:07;;;;;;;14.65;10.05;;;28.30;99.90;;;;;;5033918;28;20055;-88
2023/07/11 07:03:36;;;;;;;16.15;11.00;;;28.20;99.90;;;;;;5032072;28;20529;-85
2023/07/11 07:06:07;;;;;;;16.33;11.32;;;27.80;99.90;;;;;;5035230;28;20052;-85
2023/07/11 07:08:34;;;;;;;15.13;10.73;;;27.30;99.90;;;;;;5034534;28;20413;-86
2023/07/11 07:11:02;;;;;;;14.77;10.27;;;27.10;99.90;;;;;;5033142;28;20057;-86
2023/07/11 07:13:30;;;;;;;13.43;10.65;;;27.20;99.90;;;;;;5032966;28;20137;-86
2023/07/11 07:16:02;;;;;;;14.60;9.35;;;27.40;99.90;;;;;;5033294;28;20040;-87
2023/07/11 07:18:34;;;;;;;18.13;10.38;;;27.60;99.90;;;;;;5032711;28;20045;-86
2023/07/11 07:21:04;;;;;;;13.82;10.18;;;28.10;99.90;;;;;;5031565;28;20342;-84
2023/07/11 07:23:33;;;;;;;17.63;10.10;;;28.70;99.90;;;;;;5035413;28;20041;-87
2023/07/11 07:26:02;;;;;;;15.55;9.15;;;29.20;99.90;;;;;;5031073;28;20300;-87
2023/07/11 07:28:32;;;;;;;14.98;9.93;;;29.70;99.90;;;;;;5028564;28;20041;-85
2023/07/11 07:31:00;;;;;;;13.05;10.02;;;30.00;99.90;;;;;;5011549;28;20132;-84
2023/07/11 07:33:28;;;;;;;11.63;9.20;;;30.00;99.90;;;;;;5026863;28;20061;-85
2023/07/11 07:35:58;;;;;;;13.13;11.20;;;29.70;99.90;;;;;;5031468;28;20053;-85
2023/07/11 07:38:28;;;;;;;14.27;10.23;;;30.10;99.90;;;;;;5030414;28;20128;-86
2023/07/11 07:40:57;;;;;;;12.52;9.52;;;30.10;99.90;;;;;;5028793;28;20096;-87
2023/07/11 07:43:25;;;;;;;16.23;9.95;;;29.70;99.90;;;;;;5030919;28;20037;-85
2023/07/11 07:45:54;;;;;;;15.43;10.95;;;29.40;99.90;;;;;;5031841;28;20037;-86
2023/07/11 07:48:22;;;;;;;20.75;12.13;;;29.50;99.90;;;;;;5030995;28;20064;-84
2023/07/11 07:50:49;;;;;;;14.68;11.70;;;29.80;99.90;;;;;;5028487;28;20038;-84
2023/07/11 07:53:18;;;;;;;17.95;11.77;;;30.20;99.90;;;;;;5029395;28;20042;-86
2023/07/11 07:55:47;;;;;;;15.50;10.63;;;30.50;99.90;;;;;;5036684;28;20169;-84
2023/07/11 07:58:15;;;;;;;24.05;10.70;;;30.50;99.90;;;;;;5035766;28;20043;-86
2023/07/11 08:00:42;;;;;;;13.75;10.45;;;30.40;99.90;;;;;;5033914;28;20502;-86
2023/07/11 08:03:09;;;;;;;18.98;10.88;;;30.50;99.90;;;;;;5038100;28;20037;-85
2023/07/11 08:05:37;;;;;;;17.75;11.52;;;30.50;99.90;;;;;;5038813;28;20160;-85
2023/07/11 08:08:05;;;;;;;17.20;11.93;;;30.50;99.90;;;;;;5029178;28;20053;-84
2023/07/11 08:10:34;;;;;;;14.45;10.90;;;30.70;99.90;;;;;;5030208;28;20045;-87
2023/07/11 08:13:02;;;;;;;13.00;9.70;;;30.80;99.90;;;;;;5029003;28;20045;-85
2023/07/11 08:15:30;;;;;;;13.10;9.95;;;30.80;99.90;;;;;;5029560;28;20053;-87
2023/07/11 08:17:57;;;;;;;15.90;10.32;;;30.90;99.90;;;;;;5028290;28;20042;-85
2023/07/11 08:20:24;;;;;;;13.30;10.20;;;30.80;99.90;;;;;;5029039;28;20045;-85
2023/07/11 08:22:52;;;;;;;18.48;11.23;;;30.90;99.90;;;;;;5030170;28;20524;-84
2023/07/11 08:25:20;;;;;;;17.77;12.07;;;31.00;99.90;;;;;;5030845;28;20148;-86
2023/07/11 08:27:47;;;;;;;17.50;12.70;;;31.20;99.90;;;;;;5028400;28;20049;-84
2023/07/11 08:30:16;;;;;;;18.25;12.40;;;30.60;99.90;;;;;;5045492;28;20045;-86
2023/07/11 08:32:44;;;;;;;18.55;12.63;;;30.80;99.90;;;;;;5052505;28;20052;-86
2023/07/11 08:35:11;;;;;;;18.33;12.82;;;30.90;99.90;;;;;;5049123;28;20508;-86
2023/07/11 08:37:39;;;;;;;17.77;12.68;;;30.90;99.90;;;;;;5048231;28;20049;-85
2023/07/11 08:40:09;;;;;;;15.73;11.55;;;30.40;99.90;;;;;;5048916;28;20084;-85
2023/07/11 08:42:40;;;;;;;15.90;11.38;;;30.50;99.90;;;;;;5066045;28;20455;-85
2023/07/11 08:45:20;;;;;;;14.38;10.68;;;30.50;99.90;;;;;;5033715;28;20088;-84
2023/07/11 08:47:59;;;;;;;16.98;11.73;;;30.60;99.90;;;;;;5053898;28;20212;-85
2023/07/11 08:50:30;;;;;;;17.13;11.38;;;30.60;99.90;;;;;;5052115;28;20101;-86
2023/07/11 08:53:07;;;;;;;17.27;11.95;;;30.80;99.90;;;;;;5050914;28;20038;-86
2023/07/11 08:55:37;;;;;;;13.90;11.02;;;31.00;99.90;;;;;;5039513;28;20045;-85
2023/07/11 08:58:10;;;;;;;20.08;15.75;;;31.10;99.90;;;;;;5033992;28;20041;-86
2023/07/11 09:00:40;;;;;;;15.25;12.07;;;31.10;99.90;;;;;;5031980;28;20034;-85
2023/07/11 09:03:16;;;;;;;17.80;11.55;;;31.10;99.90;;;;;;5033408;28;20046;-85
2023/07/11 09:05:49;;;;;;;18.75;11.52;;;31.10;99.90;;;;;;5034187;28;20410;-84
2023/07/11 09:08:20;;;;;;;13.25;10.43;;;31.00;99.90;;;;;;5033324;28;20030;-86
2023/07/11 09:10:57;;;;;;;16.20;9.73;;;31.10;99.90;;;;;;5033143;28;20048;-87
2023/07/11 09:13:47;;;;;;;12.18;9.50;;;31.40;99.90;;;;;;5033156;28;20248;-86
2023/07/11 09:16:30;;;;;;;17.20;10.63;;;31.60;99.90;;;;;;5033541;28;20090;-85
2023/07/11 09:19:06;;;;;;;15.10;9.65;;;31.60;99.90;;;;;;5033762;28;20080;-83
2023/07/11 09:21:41;;;;;;;11.65;9.52;;;31.70;99.90;;;;;;5033992;28;20053;-84
2023/07/11 09:24:19;;;;;;;16.67;11.93;;;31.70;99.90;;;;;;5034364;28;20048;-85
2023/07/11 09:26:49;;;;;;;21.48;11.93;;;31.80;99.90;;;;;;5016109;28;20038;-85
2023/07/11 09:29:18;;;;;;;17.20;11.75;;;31.80;99.90;;;;;;5034555;28;20112;-84
2023/07/11 09:31:53;;;;;;;19.48;12.95;;;31.70;99.90;;;;;;5052038;28;20029;-84
2023/07/11 09:34:26;;;;;;;20.48;12.30;;;31.90;99.90;;;;;;5051498;28;20131;-84
2023/07/11 09:36:57;;;;;;;18.50;12.15;;;32.10;99.90;;;;;;5051003;28;20132;-85
2023/07/11 09:39:30;;;;;;;16.58;11.85;;;32.10;99.90;;;;;;5053298;28;20079;-83
2023/07/11 09:42:06;;;;;;;13.77;10.32;;;32.30;99.90;;;;;;5053054;28;20063;-84
2023/07/11 09:44:33;;;;;;;18.25;9.60;;;32.40;99.90;;;;;;5038883;28;20038;-86
2023/07/11 09:47:16;;;;;;;18.45;9.88;;;32.20;99.90;;;;;;5036107;28;20469;-85
2023/07/11 09:49:45;;;;;;;16.02;10.60;;;31.80;99.90;;;;;;5036513;28;20200;-86
2023/07/11 09:52:26;;;;;;;12.13;9.80;;;31.90;99.90;;;;;;5036565;28;20080;-84
2023/07/11 09:54:54;;;;;;;15.10;10.23;;;31.90;99.90;;;;;;5040918;28;20119;-84
2023/07/11 09:57:24;;;;;;;18.27;11.23;;;31.80;99.90;;;;;;5039424;28;20099;-84
2023/07/11 09:59:59;;;;;;;19.08;10.20;;;31.90;99.90;;;;;;5033940;28;20133;-84
2023/07/11 10:02:28;;;;;;;16.23;9.38;;;32.20;99.90;;;;;;5035112;28;20105;-84
2023/07/11 10:04:57;;;;;;;14.50;9.75;;;32.40;99.90;;;;;;5035474;28;20051;-86
2023/07/11 10:07:30;;;;;;;15.60;10.40;;;32.40;99.90;;;;;;5035885;28;20048;-85
2023/07/11 10:10:02;;;;;;;13.77;9.75;;;32.20;99.90;;;;;;5034012;28;20045;-86
2023/07/11 10:12:30;;;;;;;21.60;12.18;;;32.30;99.90;;;;;;5033325;28;20045;-86
2023/07/11 10:15:00;;;;;;;13.70;9.85;;;32.50;99.90;;;;;;5036921;28;20103;-84
2023/07/11 10:17:35;;;;;;;18.30;12.15;;;32.70;99.90;;;;;;5034461;28;20077;-87
2023/07/11 10:20:06;;;;;;;14.00;9.07;;;32.70;99.90;;;;;;5031817;28;20217;-87
2023/07/11 10:22:36;;;;;;;13.30;10.15;;;32.90;99.90;;;;;;5032804;28;20051;-86
2023/07/11 10:25:15;;;;;;;13.27;8.90;;;32.90;99.90;;;;;;5034022;28;20041;-85
2023/07/11 10:27:49;;;;;;;14.15;9.23;;;33.00;99.90;;;;;;5031184;28;20497;-87
2023/07/11 10:30:21;;;;;;;14.30;9.88;;;33.00;99.90;;;;;;5039959;28;20428;-87
2023/07/11 10:32:56;;;;;;;12.05;8.65;;;32.80;99.90;;;;;;5052484;28;20412;-86
2023/07/11 10:35:25;;;;;;;12.40;8.75;;;32.80;99.90;;;;;;5051570;28;20488;-87
2023/07/11 10:37:56;;;;;;;16.02;11.20;;;32.90;99.90;;;;;;5056892;22;20050;-74
2023/07/11 10:40:27;;;;;;;13.68;8.57;;;33.00;99.90;;;;;;5034298;28;20073;-75
2023/07/11 10:43:06;;;;;;;10.77;8.43;;;33.20;99.90;;;;;;5032670;28;20133;-77
2023/07/11 10:45:39;;;;;;;12.80;9.00;;;33.40;99.90;;;;;;5034385;28;20052;-76
2023/07/11 10:48:30;;;;;;;12.07;9.38;;;33.50;99.90;;;;;;5034286;28;20079;-77
2023/07/11 10:51:02;;;;;;;12.35;9.55;;;33.60;99.90;;;;;;5034074;28;20096;-77
2023/07/11 10:53:34;;;;;;;17.08;14.68;;;33.70;99.90;;;;;;5033937;28;20041;-74
2023/07/11 10:56:07;;;;;;;13.43;10.43;;;33.60;99.90;;;;;;5033420;28;20037;-74
2023/07/11 10:58:35;;;;;;;11.73;9.32;;;33.50;99.90;;;;;;5033281;28;20041;-78
2023/07/11 11:01:13;;;;;;;8.13;6.80;;;33.50;99.90;;;;;;5031991;28;20038;-76
2023/07/11 11:03:44;;;;;;;9.90;7.75;;;33.50;99.90;;;;;;5047064;28;20432;-75
2023/07/11 11:06:35;;;;;;;10.23;7.78;;;33.60;99.90;;;;;;5031598;28;20313;-76
2023/07/11 11:09:14;;;;;;;12.82;9.25;;;33.50;99.90;;;;;;5018185;28;20509;-77
2023/07/11 11:11:52;;;;;;;16.88;11.02;;;33.50;99.90;;;;;;5031048;28;20049;-78
2023/07/11 11:14:26;;;;;;;10.57;9.13;;;33.60;99.90;;;;;;5031677;28;20038;-75
2023/07/11 11:17:06;;;;;;;11.23;7.97;;;33.50;99.90;;;;;;5031742;28;20457;-77
2023/07/11 11:19:51;;;;;;;14.23;8.40;;;33.50;99.90;;;;;;5031453;28;20044;-79
2023/07/11 11:22:24;;;;;;;13.60;8.17;;;33.60;99.90;;;;;;5018182;28;20050;-76
2023/07/11 11:24:59;;;;;;;11.98;8.88;;;33.70;99.90;;;;;;5011635;28;20046;-74
2023/07/11 11:27:35;;;;;;;13.27;10.20;;;33.80;99.90;;;;;;5011070;28;20046;-77
2023/07/11 11:30:13;;;;;;;12.80;9.75;;;33.60;99.90;;;;;;5010524;28;20046;-78
2023/07/11 11:32:55;;;;;;;12.60;8.30;;;33.70;99.90;;;;;;5010836;28;20042;-76
2023/07/11 11:35:33;;;;;;;14.68;8.85;;;33.90;99.90;;;;;;5010742;28;20495;-78
2023/07/11 11:38:18;;;;;;;12.65;7.80;;;33.80;99.90;;;;;;5011324;28;20517;-76
2023/07/11 11:40:50;;;;;;;10.10;7.95;;;34.00;99.90;;;;;;5019664;28;20045;-73
2023/07/11 11:43:25;;;;;;;9.40;6.78;;;34.00;99.90;;;;;;5031094;28;20183;-77
2023/07/11 11:45:53;;;;;;;11.65;8.25;;;34.10;99.90;;;;;;5031939;28;20044;-76
2023/07/11 11:48:23;;;;;;;11.25;7.15;;;34.00;99.90;;;;;;5043569;28;20057;-76
2023/07/11 11:50:53;;;;;;;11.20;6.82;;;34.10;99.90;;;;;;5042857;28;20041;-78
2023/07/11 11:53:23;;;;;;;10.85;8.55;;;34.20;99.90;;;;;;5033823;28;20111;-77
2023/07/11 11:55:57;;;;;;;11.45;6.47;;;34.20;99.90;;;;;;5053876;28;20029;-81
2023/07/11 11:58:27;;;;;;;12.65;7.25;;;34.30;99.90;;;;;;5054141;28;20078;-77
2023/07/11 12:00:56;;;;;;;9.40;7.53;;;34.30;99.90;;;;;;5050394;28;20056;-75
2023/07/11 12:03:29;;;;;;;10.60;5.75;;;34.40;99.90;;;;;;5047947;28;20056;-76
2023/07/11 12:06:00;;;;;;;12.13;9.18;;;34.30;99.90;;;;;;5034778;28;20041;-77
2023/07/11 12:08:31;;;;;;;8.23;6.18;;;34.20;99.90;;;;;;5029808;28;20057;-75
2023/07/11 12:11:16;;;;;;;11.43;7.38;;;34.10;99.90;;;;;;5030234;28;20049;-78
2023/07/11 12:13:47;;;;;;;10.90;7.45;;;34.00;99.90;;;;;;5031358;28;20045;-75
2023/07/11 12:16:30;;;;;;;9.32;7.03;;;34.10;99.90;;;;;;5030269;28;20049;-78
2023/07/11 12:18:58;;;;;;;12.25;7.20;;;34.00;99.90;;;;;;5011196;28;20041;-77
2023/07/11 12:21:34;;;;;;;9.48;7.38;;;34.10;99.90;;;;;;5010160;28;20042;-76
2023/07/11 12:24:23;;;;;;;12.27;8.57;;;34.10;99.90;;;;;;5009923;28;20052;-77
2023/07/11 12:26:52;;;;;;;13.43;8.45;;;34.30;99.90;;;;;;5009109;28;20111;-79
2023/07/11 12:29:52;;;;;;;10.05;8.50;;;34.20;99.90;;;;;;5020449;28;20061;-77
2023/07/11 12:32:41;;;;;;;12.27;8.07;;;34.10;99.90;;;;;;5007369;28;20045;-79
2023/07/11 12:35:18;;;;;;;13.25;11.38;;;34.00;99.90;;;;;;5029223;28;20473;-77
2023/07/11 12:38:06;;;;;;;10.85;7.55;;;34.20;99.90;;;;;;5030040;28;20054;-76
2023/07/11 12:40:42;;;;;;;13.10;8.70;;;34.30;99.90;;;;;;5029161;28;20053;-75
2023/07/11 12:43:19;;;;;;;19.23;13.98;;;34.20;99.90;;;;;;5026990;28;20053;-78
2023/07/11 12:45:51;;;;;;;9.73;6.78;;;34.20;99.90;;;;;;5009591;28;20049;-78